METAR Data
IDs: Format: Raw Decoded Include TAF

Data at: 1705 UTC 03 Jul 2020

METAR for:KHAO (Hamilton/Butler Cnty, OH, US)
Text:KHAO 031653Z AUTO 00000KT 10SM CLR 32/18 A3004 RMK AO2 SLP166 T03170183
Temperature: 31.7°C ( 89°F)
Dewpoint: 18.3°C ( 65°F) [RH = 45%]
Pressure (altimeter):30.04 inches Hg (1017.4 mb) [Sea level pressure: 1016.6 mb]
Winds:calm
Visibility:10 or more sm (16+ km)
Ceiling:at least 12,000 feet AGL
Clouds:sky clear below 12,000 feet AGL
QC Flag:automated observation with no human augmentation